Time;durP1;ratioP1;P1;durP2;ratioP2;P2;SDS_P1;SDS_P2;PMS_P1;PMS_P2;Temp;Humidity;BMP_temperature;BMP_pressure;BME280_temperature;BME280_humidity;BME280_pressure;Samples;Min_cycle;Max_cycle;Signal;HPM_P1;HPM_P2
2023/03/05 00:03:14;;;;;;;31.35;19.80;;;;;;;;;;10409092;27;20067;-65
2023/03/05 00:08:14;;;;;;;39.78;24.88;;;;;;;;;;10413716;27;20044;-65
2023/03/05 00:13:12;;;;;;;31.52;19.75;;;;;;;;;;10414951;27;20050;-64
2023/03/05 00:18:10;;;;;;;30.00;20.58;;;;;;;;;;10415029;27;20071;-65
2023/03/05 00:23:09;;;;;;;30.77;18.58;;;;;;;;;;10414466;27;20071;-65
2023/03/05 00:28:08;;;;;;;32.42;19.80;;;;;;;;;;10412078;27;20078;-65
2023/03/05 00:33:07;;;;;;;34.35;22.67;;;;;;;;;;10414596;27;20522;-66
2023/03/05 00:38:05;;;;;;;26.98;20.75;;;;;;;;;;10412621;27;20075;-66
2023/03/05 00:43:03;;;;;;;33.05;20.65;;;;;;;;;;10415118;27;20047;-65
2023/03/05 00:48:03;;;;;;;29.15;20.67;;;;;;;;;;10413677;27;20044;-65
2023/03/05 00:53:01;;;;;;;35.10;22.58;;;;;;;;;;10413865;27;20055;-65
2023/03/05 00:57:59;;;;;;;37.60;23.75;;;;;;;;;;10409863;27;20093;-65
2023/03/05 01:02:57;;;;;;;37.47;23.13;;;;;;;;;;10422000;27;20058;-65
2023/03/05 01:07:57;;;;;;;33.90;21.20;;;;;;;;;;10412963;27;20071;-65
2023/03/05 01:12:56;;;;;;;33.60;20.45;;;;;;;;;;10410529;27;20071;-65
2023/03/05 01:17:54;;;;;;;33.55;22.00;;;;;;;;;;10422928;27;20507;-65
2023/03/05 01:22:53;;;;;;;40.30;23.73;;;;;;;;;;10410711;27;20036;-65
2023/03/05 01:27:53;;;;;;;34.88;22.65;;;;;;;;;;10413778;27;20063;-65
2023/03/05 01:32:51;;;;;;;35.47;20.88;;;;;;;;;;10411717;27;20429;-65
2023/03/05 01:37:49;;;;;;;36.65;25.00;;;;;;;;;;10415471;28;20441;-65
2023/03/05 01:42:48;;;;;;;34.70;22.75;;;;;;;;;;10411988;28;20074;-65
2023/03/05 01:47:48;;;;;;;32.55;23.92;;;;;;;;;;10411509;28;20051;-65
2023/03/05 01:52:49;;;;;;;34.63;22.48;;;;;;;;;;10413437;28;20067;-65
2023/03/05 01:57:49;;;;;;;33.80;22.52;;;;;;;;;;10414389;28;20083;-66
2023/03/05 02:02:50;;;;;;;41.03;24.85;;;;;;;;;;10412041;28;20051;-65
2023/03/05 02:07:48;;;;;;;39.17;22.45;;;;;;;;;;10412731;28;20058;-65
2023/03/05 02:12:48;;;;;;;32.65;21.73;;;;;;;;;;10412773;27;20531;-65
2023/03/05 02:17:46;;;;;;;34.85;21.90;;;;;;;;;;10419978;28;20470;-65
2023/03/05 02:22:45;;;;;;;31.35;22.48;;;;;;;;;;10411263;28;20067;-65
2023/03/05 02:27:45;;;;;;;37.80;23.05;;;;;;;;;;10411551;28;20040;-65
2023/03/05 02:32:43;;;;;;;36.45;23.38;;;;;;;;;;10409772;27;20074;-65
2023/03/05 02:37:42;;;;;;;42.58;23.95;;;;;;;;;;10421462;27;20479;-66
2023/03/05 02:42:42;;;;;;;39.28;23.13;;;;;;;;;;10418941;27;20102;-65
2023/03/05 02:47:42;;;;;;;32.30;22.40;;;;;;;;;;10417155;27;20051;-65
2023/03/05 02:52:41;;;;;;;35.13;24.27;;;;;;;;;;10419078;27;20063;-65
2023/03/05 02:57:45;;;;;;;33.08;22.52;;;;;;;;;;10418100;27;20488;-66
2023/03/05 03:02:43;;;;;;;39.50;23.50;;;;;;;;;;10417119;27;20067;-66
2023/03/05 03:07:41;;;;;;;34.42;23.17;;;;;;;;;;10420735;27;20035;-65
2023/03/05 03:12:40;;;;;;;37.53;22.95;;;;;;;;;;10425838;27;20051;-65
2023/03/05 03:17:39;;;;;;;38.80;24.02;;;;;;;;;;10419765;27;20070;-66
2023/03/05 03:22:37;;;;;;;38.53;25.20;;;;;;;;;;10417293;27;20063;-65
2023/03/05 03:27:35;;;;;;;37.13;25.67;;;;;;;;;;10417703;27;20074;-65
2023/03/05 03:32:34;;;;;;;37.58;23.65;;;;;;;;;;10416654;27;20059;-65
2023/03/05 03:37:33;;;;;;;36.40;22.90;;;;;;;;;;10417313;27;20059;-65
2023/03/05 03:42:32;;;;;;;36.22;22.83;;;;;;;;;;10417083;27;20478;-65
2023/03/05 03:47:30;;;;;;;34.40;22.48;;;;;;;;;;10415551;27;20070;-65
2023/03/05 03:52:29;;;;;;;34.67;23.02;;;;;;;;;;10417393;27;20063;-66
2023/03/05 03:57:28;;;;;;;36.08;24.17;;;;;;;;;;10417943;27;20554;-65
2023/03/05 04:02:27;;;;;;;41.15;23.85;;;;;;;;;;10417073;27;20475;-65
2023/03/05 04:07:25;;;;;;;29.15;21.95;;;;;;;;;;10414780;27;20067;-65
2023/03/05 04:12:23;;;;;;;38.25;22.75;;;;;;;;;;10415707;27;20062;-65
2023/03/05 04:17:23;;;;;;;39.90;26.58;;;;;;;;;;10411748;27;20067;-65
2023/03/05 04:22:21;;;;;;;42.50;24.80;;;;;;;;;;10416535;27;20078;-66
2023/03/05 04:27:19;;;;;;;63.70;42.47;;;;;;;;;;10417843;27;20039;-66
2023/03/05 04:32:21;;;;;;;43.45;27.58;;;;;;;;;;10414798;27;20055;-66
2023/03/05 04:37:21;;;;;;;36.70;22.73;;;;;;;;;;10415308;27;20079;-65
2023/03/05 04:42:20;;;;;;;41.22;25.58;;;;;;;;;;10415352;27;20508;-66
2023/03/05 04:47:18;;;;;;;34.60;22.17;;;;;;;;;;10413121;27;20531;-66
2023/03/05 04:52:16;;;;;;;41.38;24.00;;;;;;;;;;10413137;27;20051;-66
2023/03/05 04:57:16;;;;;;;38.33;25.52;;;;;;;;;;10414373;27;20126;-65
2023/03/05 05:02:14;;;;;;;39.08;23.92;;;;;;;;;;10414331;27;20075;-65
2023/03/05 05:07:12;;;;;;;36.90;22.42;;;;;;;;;;10413665;27;20468;-66
2023/03/05 05:12:10;;;;;;;34.88;23.27;;;;;;;;;;10412766;27;20449;-65
2023/03/05 05:17:10;;;;;;;36.15;24.73;;;;;;;;;;10414951;27;20047;-65
2023/03/05 05:22:08;;;;;;;37.60;24.73;;;;;;;;;;10412464;27;20528;-65
2023/03/05 05:27:06;;;;;;;38.50;23.92;;;;;;;;;;10412654;27;20075;-65
2023/03/05 05:32:05;;;;;;;31.98;22.35;;;;;;;;;;10412215;27;20067;-66
2023/03/05 05:37:04;;;;;;;35.90;22.10;;;;;;;;;;10407961;28;20416;-65
2023/03/05 05:42:03;;;;;;;33.13;22.40;;;;;;;;;;10406572;28;20071;-66
2023/03/05 05:47:01;;;;;;;32.15;21.45;;;;;;;;;;10413710;28;20075;-65
2023/03/05 05:51:59;;;;;;;34.08;22.95;;;;;;;;;;10412895;27;20083;-66
2023/03/05 05:56:59;;;;;;;39.08;21.75;;;;;;;;;;10412452;28;20075;-65
2023/03/05 06:01:57;;;;;;;34.92;23.05;;;;;;;;;;10407343;28;20079;-66
2023/03/05 06:06:55;;;;;;;34.13;22.45;;;;;;;;;;10414679;27;20067;-66
2023/03/05 06:11:53;;;;;;;37.00;25.88;;;;;;;;;;10419210;27;20083;-66
2023/03/05 06:16:53;;;;;;;33.75;21.75;;;;;;;;;;10420807;27;20520;-65
2023/03/05 06:21:51;;;;;;;31.02;21.23;;;;;;;;;;10418518;27;20079;-65
2023/03/05 06:26:49;;;;;;;38.80;24.20;;;;;;;;;;10419907;27;20062;-65
2023/03/05 06:31:47;;;;;;;35.10;24.05;;;;;;;;;;10420318;27;20075;-65
2023/03/05 06:36:47;;;;;;;35.95;22.95;;;;;;;;;;10427930;27;20039;-66
2023/03/05 06:41:45;;;;;;;37.72;24.45;;;;;;;;;;10411494;27;20071;-65
2023/03/05 06:46:43;;;;;;;43.13;26.85;;;;;;;;;;10413232;27;20079;-65
2023/03/05 06:51:42;;;;;;;35.58;24.13;;;;;;;;;;10408799;27;20071;-65
2023/03/05 06:56:42;;;;;;;35.03;24.83;;;;;;;;;;10416688;27;20069;-66
2023/03/05 07:01:40;;;;;;;31.55;23.13;;;;;;;;;;10414627;27;20078;-64
2023/03/05 07:06:39;;;;;;;37.60;25.83;;;;;;;;;;10416282;27;20082;-65
2023/03/05 07:11:37;;;;;;;37.67;25.17;;;;;;;;;;10408695;27;20078;-66
2023/03/05 07:16:36;;;;;;;47.20;28.48;;;;;;;;;;10416534;27;20060;-66
2023/03/05 07:21:35;;;;;;;41.22;25.05;;;;;;;;;;10409931;27;20175;-65
2023/03/05 07:26:36;;;;;;;47.10;30.27;;;;;;;;;;10417550;27;20071;-65
2023/03/05 07:31:34;;;;;;;35.45;24.42;;;;;;;;;;10412029;27;20543;-65
2023/03/05 07:36:34;;;;;;;46.03;28.50;;;;;;;;;;10411368;27;20098;-65
2023/03/05 07:41:32;;;;;;;38.38;25.83;;;;;;;;;;10407235;27;20513;-65
2023/03/05 07:46:31;;;;;;;40.60;25.98;;;;;;;;;;10411466;27;20078;-65
2023/03/05 07:51:30;;;;;;;46.15;29.05;;;;;;;;;;10415141;27;20050;-65
2023/03/05 07:56:31;;;;;;;44.00;27.25;;;;;;;;;;10414464;27;20248;-65
2023/03/05 08:01:29;;;;;;;40.55;24.90;;;;;;;;;;10414711;27;20844;-65
2023/03/05 08:06:27;;;;;;;40.72;27.00;;;;;;;;;;10416078;27;20497;-65
2023/03/05 08:11:27;;;;;;;36.25;25.00;;;;;;;;;;10414003;27;20032;-65
2023/03/05 08:16:26;;;;;;;40.08;26.83;;;;;;;;;;10415161;27;20074;-65
2023/03/05 08:21:28;;;;;;;45.25;25.75;;;;;;;;;;10415496;27;20589;-65
2023/03/05 08:26:27;;;;;;;52.85;32.95;;;;;;;;;;10416463;27;20085;-65
2023/03/05 08:31:28;;;;;;;40.55;28.08;;;;;;;;;;10414958;27;20069;-65
2023/03/05 08:36:27;;;;;;;46.85;30.08;;;;;;;;;;10415599;27;20063;-66
2023/03/05 08:41:26;;;;;;;45.95;30.27;;;;;;;;;;10413482;27;20488;-65
2023/03/05 08:46:24;;;;;;;43.75;30.55;;;;;;;;;;10416125;27;20074;-66
2023/03/05 08:51:25;;;;;;;36.40;25.17;;;;;;;;;;10413530;27;20464;-65
2023/03/05 08:56:25;;;;;;;48.00;28.13;;;;;;;;;;10414933;27;20073;-65
2023/03/05 09:01:23;;;;;;;40.90;27.75;;;;;;;;;;10413597;27;20513;-65
2023/03/05 09:06:21;;;;;;;42.35;26.63;;;;;;;;;;10414249;27;20067;-65
2023/03/05 09:11:22;;;;;;;42.65;27.63;;;;;;;;;;10412806;27;20079;-64
2023/03/05 09:16:20;;;;;;;46.00;32.60;;;;;;;;;;10409963;27;20048;-65
2023/03/05 09:21:18;;;;;;;48.72;33.50;;;;;;;;;;10415133;27;20079;-65
2023/03/05 09:26:19;;;;;;;47.63;33.20;;;;;;;;;;10414825;27;20062;-65
2023/03/05 09:31:19;;;;;;;50.10;33.22;;;;;;;;;;10412360;27;20527;-65
2023/03/05 09:36:22;;;;;;;34.47;27.55;;;;;;;;;;10419118;27;20412;-66
2023/03/05 09:41:25;;;;;;;42.25;33.22;;;;;;;;;;10413407;27;20547;-65
2023/03/05 09:46:29;;;;;;;37.45;29.63;;;;;;;;;;10420526;27;20075;-65
2023/03/05 09:51:29;;;;;;;39.80;29.30;;;;;;;;;;10422208;27;20079;-65
2023/03/05 09:56:29;;;;;;;45.25;31.73;;;;;;;;;;10419895;27;20467;-65
2023/03/05 10:01:30;;;;;;;42.42;30.75;;;;;;;;;;10421644;27;20435;-65
2023/03/05 10:06:30;;;;;;;41.05;29.52;;;;;;;;;;10421537;27;20102;-65
2023/03/05 10:11:36;;;;;;;45.08;32.67;;;;;;;;;;10420206;27;20063;-65
2023/03/05 10:16:50;;;;;;;37.55;29.35;;;;;;;;;;10416078;27;20078;-64
2023/03/05 10:21:51;;;;;;;34.55;26.58;;;;;;;;;;10412181;27;20082;-64
2023/03/05 10:26:57;;;;;;;42.85;29.70;;;;;;;;;;10411970;27;20051;-66
2023/03/05 10:32:03;;;;;;;40.45;31.23;;;;;;;;;;10409393;27;20066;-65
2023/03/05 10:37:09;;;;;;;42.90;30.13;;;;;;;;;;10419682;27;20050;-65
2023/03/05 10:42:09;;;;;;;36.70;28.75;;;;;;;;;;10420188;27;20517;-67
2023/03/05 10:47:14;;;;;;;43.70;32.92;;;;;;;;;;10419688;27;20464;-65
2023/03/05 10:52:14;;;;;;;;;;;;;;;;;;10419402;27;20082;-65
2023/03/05 10:57:19;;;;;;;33.72;27.95;;;;;;;;;;10419955;27;20000;-65
2023/03/05 11:02:19;;;;;;;49.38;36.17;;;;;;;;;;10414255;27;20089;-65
2023/03/05 11:07:33;;;;;;;38.40;31.70;;;;;;;;;;10414824;27;20075;-65
2023/03/05 11:12:33;;;;;;;48.00;32.70;;;;;;;;;;10409301;27;20067;-65
2023/03/05 11:17:34;;;;;;;39.15;31.00;;;;;;;;;;10418394;27;20055;-65
2023/03/05 11:22:34;;;;;;;38.72;29.00;;;;;;;;;;10414373;27;20094;-65
2023/03/05 11:27:35;;;;;;;53.60;38.35;;;;;;;;;;10403011;27;20512;-65
2023/03/05 11:32:35;;;;;;;39.75;28.73;;;;;;;;;;10412795;27;20067;-64
2023/03/05 11:37:33;;;;;;;40.70;29.17;;;;;;;;;;10405232;27;20077;-66
2023/03/05 11:42:31;;;;;;;43.28;29.02;;;;;;;;;;10409675;27;20067;-64
2023/03/05 11:47:34;;;;;;;42.97;32.75;;;;;;;;;;10398657;27;20103;-64
2023/03/05 11:52:41;;;;;;;39.03;29.30;;;;;;;;;;10411095;27;20078;-64
2023/03/05 11:57:42;;;;;;;39.50;28.42;;;;;;;;;;10405128;27;21318;-64
2023/03/05 12:02:41;;;;;;;34.40;28.27;;;;;;;;;;10407977;27;20517;-64
2023/03/05 12:07:44;;;;;;;35.92;29.13;;;;;;;;;;10412566;27;20109;-64
2023/03/05 12:12:45;;;;;;;37.10;28.77;;;;;;;;;;10402655;27;20445;-64
2023/03/05 12:17:45;;;;;;;40.30;29.67;;;;;;;;;;10413838;27;20429;-65
2023/03/05 12:22:44;;;;;;;35.33;26.17;;;;;;;;;;10413460;27;20070;-64
2023/03/05 12:27:43;;;;;;;36.80;27.77;;;;;;;;;;10413201;27;20071;-64
2023/03/05 12:33:02;;;;;;;35.97;27.55;;;;;;;;;;10415949;27;20074;-64
2023/03/05 12:38:15;;;;;;;41.97;32.38;;;;;;;;;;10417142;27;20078;-65
2023/03/05 12:43:32;;;;;;;32.80;26.60;;;;;;;;;;10407354;27;20500;-64
2023/03/05 12:48:43;;;;;;;36.05;28.00;;;;;;;;;;10411774;27;20071;-64
2023/03/05 12:53:42;;;;;;;38.13;26.65;;;;;;;;;;10405598;27;20075;-66
2023/03/05 12:58:43;;;;;;;32.40;24.95;;;;;;;;;;10406793;27;20087;-64
2023/03/05 13:03:45;;;;;;;33.08;24.27;;;;;;;;;;10410580;27;20077;-64
2023/03/05 13:08:43;;;;;;;32.13;24.55;;;;;;;;;;10414726;27;20079;-64
2023/03/05 13:13:46;;;;;;;30.85;25.73;;;;;;;;;;10410292;27;20134;-65
2023/03/05 13:18:45;;;;;;;32.40;24.45;;;;;;;;;;10409013;27;20083;-65
2023/03/05 13:23:46;;;;;;;28.40;21.85;;;;;;;;;;10412618;27;20090;-64
2023/03/05 13:29:02;;;;;;;35.88;27.15;;;;;;;;;;10416189;27;20052;-65
2023/03/05 13:34:07;;;;;;;37.70;27.08;;;;;;;;;;10406065;27;20484;-64
2023/03/05 13:39:06;;;;;;;41.67;29.42;;;;;;;;;;10412600;27;20071;-65
2023/03/05 13:44:06;;;;;;;36.33;28.35;;;;;;;;;;10412340;28;20601;-65
2023/03/05 13:49:17;;;;;;;39.10;29.35;;;;;;;;;;10413414;27;20080;-64
2023/03/05 13:54:16;;;;;;;37.50;28.33;;;;;;;;;;10408761;28;20074;-64
2023/03/05 13:59:18;;;;;;;35.38;28.13;;;;;;;;;;10408846;28;20079;-64
2023/03/05 14:04:19;;;;;;;36.97;27.30;;;;;;;;;;10407956;28;20070;-65
2023/03/05 14:09:20;;;;;;;35.22;29.27;;;;;;;;;;10410448;27;20086;-64
2023/03/05 14:14:20;;;;;;;33.85;27.10;;;;;;;;;;10411179;28;20071;-64
2023/03/05 14:19:31;;;;;;;40.35;29.67;;;;;;;;;;10409043;28;20071;-65
2023/03/05 14:24:30;;;;;;;39.67;32.75;;;;;;;;;;10412774;28;20485;-64
2023/03/05 14:29:29;;;;;;;33.30;25.48;;;;;;;;;;10414420;27;20507;-65
2023/03/05 14:34:29;;;;;;;38.10;29.60;;;;;;;;;;10416736;27;20532;-63
2023/03/05 14:39:29;;;;;;;40.75;31.20;;;;;;;;;;10405637;27;20452;-63
2023/03/05 14:44:28;;;;;;;32.40;28.23;;;;;;;;;;10413752;27;20999;-64
2023/03/05 14:49:27;;;;;;;37.97;32.40;;;;;;;;;;10415792;27;20470;-64
2023/03/05 14:54:25;;;;;;;38.63;29.35;;;;;;;;;;10414737;27;20075;-64
2023/03/05 14:59:24;;;;;;;52.92;41.97;;;;;;;;;;10414199;27;20083;-64
2023/03/05 15:04:22;;;;;;;35.47;29.92;;;;;;;;;;10416812;27;20203;-64
2023/03/05 15:09:22;;;;;;;44.28;35.65;;;;;;;;;;10420248;27;20052;-64
2023/03/05 15:14:20;;;;;;;107.60;73.25;;;;;;;;;;10417823;27;20078;-64
2023/03/05 15:19:18;;;;;;;65.95;48.20;;;;;;;;;;10416868;27;20071;-64
2023/03/05 15:24:17;;;;;;;100.07;73.18;;;;;;;;;;10414476;27;20642;-64
2023/03/05 15:29:16;;;;;;;52.78;43.83;;;;;;;;;;10418055;27;20105;-64
2023/03/05 15:34:15;;;;;;;44.85;35.90;;;;;;;;;;10413058;27;20117;-63
2023/03/05 15:39:13;;;;;;;85.65;62.08;;;;;;;;;;10399358;27;20063;-63
2023/03/05 15:44:11;;;;;;;68.68;53.67;;;;;;;;;;10397148;27;20515;-63
2023/03/05 15:49:11;;;;;;;63.42;48.50;;;;;;;;;;10412972;27;20083;-63
2023/03/05 15:54:09;;;;;;;76.05;55.42;;;;;;;;;;10409340;27;20654;-63
2023/03/05 15:59:08;;;;;;;75.35;51.45;;;;;;;;;;10399264;27;20074;-64
2023/03/05 16:04:07;;;;;;;104.40;69.60;;;;;;;;;;10403538;27;20085;-65
2023/03/05 16:09:06;;;;;;;99.85;70.90;;;;;;;;;;10414285;27;20078;-65
2023/03/05 16:14:06;;;;;;;92.05;68.35;;;;;;;;;;10412638;27;20083;-65
2023/03/05 16:19:05;;;;;;;75.13;59.63;;;;;;;;;;10411165;27;20063;-65
2023/03/05 16:24:03;;;;;;;77.80;58.00;;;;;;;;;;10413819;27;20952;-65
2023/03/05 16:29:03;;;;;;;105.15;78.88;;;;;;;;;;10414492;27;20079;-64
2023/03/05 16:34:02;;;;;;;116.85;86.43;;;;;;;;;;10414139;27;20664;-64
2023/03/05 16:39:00;;;;;;;139.18;104.50;;;;;;;;;;10414899;27;20094;-65
2023/03/05 16:43:59;;;;;;;145.57;108.80;;;;;;;;;;10404050;27;20085;-65
2023/03/05 16:48:58;;;;;;;159.07;126.30;;;;;;;;;;10413699;27;20535;-64
2023/03/05 16:53:57;;;;;;;127.82;98.72;;;;;;;;;;10413602;27;20073;-65
2023/03/05 16:58:55;;;;;;;105.35;84.90;;;;;;;;;;10411570;27;20528;-64
2023/03/05 17:03:54;;;;;;;100.15;76.40;;;;;;;;;;10411270;27;20159;-64
2023/03/05 17:08:53;;;;;;;173.50;133.35;;;;;;;;;;10413385;27;20059;-64
2023/03/05 17:13:52;;;;;;;189.85;145.38;;;;;;;;;;10409493;27;20071;-65
2023/03/05 17:18:50;;;;;;;134.15;102.22;;;;;;;;;;10413916;27;20102;-64
2023/03/05 17:23:48;;;;;;;124.43;100.95;;;;;;;;;;10406433;27;20075;-65
2023/03/05 17:28:48;;;;;;;89.40;70.32;;;;;;;;;;10409343;27;20070;-64
2023/03/05 17:33:46;;;;;;;81.90;64.97;;;;;;;;;;10411240;27;20055;-64
2023/03/05 17:38:45;;;;;;;72.75;59.17;;;;;;;;;;10412146;27;20067;-65
2023/03/05 17:43:43;;;;;;;45.08;37.35;;;;;;;;;;10411939;28;20469;-63
2023/03/05 17:48:43;;;;;;;46.85;39.50;;;;;;;;;;10408541;28;20071;-63
2023/03/05 17:53:41;;;;;;;52.67;44.33;;;;;;;;;;10408052;28;20070;-63
2023/03/05 17:58:39;;;;;;;52.08;43.70;;;;;;;;;;10411290;28;20074;-64
2023/03/05 18:03:38;;;;;;;52.08;40.22;;;;;;;;;;10415027;27;20078;-64
2023/03/05 18:08:38;;;;;;;52.60;39.33;;;;;;;;;;10416876;27;20087;-63
2023/03/05 18:13:36;;;;;;;34.03;27.05;;;;;;;;;;10417086;27;20079;-63
2023/03/05 18:18:34;;;;;;;44.05;27.80;;;;;;;;;;10419238;27;20074;-63
2023/03/05 18:23:32;;;;;;;38.22;27.10;;;;;;;;;;10417776;27;20067;-64
2023/03/05 18:28:32;;;;;;;38.15;25.70;;;;;;;;;;10414830;27;20361;-63
2023/03/05 18:33:31;;;;;;;45.28;29.27;;;;;;;;;;10414902;27;20540;-64
2023/03/05 18:38:30;;;;;;;56.83;27.83;;;;;;;;;;10419413;27;20082;-63
2023/03/05 18:43:28;;;;;;;31.20;20.83;;;;;;;;;;10414818;27;20522;-63
2023/03/05 18:48:27;;;;;;;18.50;15.43;;;;;;;;;;10415943;27;20082;-64
2023/03/05 18:53:26;;;;;;;31.52;23.95;;;;;;;;;;10414050;27;20063;-64
2023/03/05 18:58:24;;;;;;;28.73;20.17;;;;;;;;;;10412257;27;20046;-64
2023/03/05 19:03:23;;;;;;;17.85;14.30;;;;;;;;;;10408319;27;20059;-63
2023/03/05 19:08:24;;;;;;;20.75;16.73;;;;;;;;;;10415731;27;20075;-64
2023/03/05 19:13:39;;;;;;;14.73;12.90;;;;;;;;;;10412965;27;20085;-64
2023/03/05 19:18:56;;;;;;;;;;;;;;;;;;10416186;27;20078;-64
2023/03/05 19:24:06;;;;;;;61.80;53.93;;;;;;;;;;10415743;27;19977;-64
2023/03/05 19:29:04;;;;;;;20.35;15.52;;;;;;;;;;10407116;27;20082;-64
2023/03/05 19:34:03;;;;;;;18.83;15.52;;;;;;;;;;10412697;27;20073;-64
2023/03/05 19:39:02;;;;;;;16.52;14.00;;;;;;;;;;10414504;27;20063;-64
2023/03/05 19:44:02;;;;;;;17.60;13.95;;;;;;;;;;10410891;27;20075;-64
2023/03/05 19:49:00;;;;;;;16.98;13.27;;;;;;;;;;10416121;27;20089;-64
2023/03/05 19:53:58;;;;;;;15.52;13.13;;;;;;;;;;10412785;27;20071;-63
2023/03/05 19:58:57;;;;;;;17.40;13.23;;;;;;;;;;10413407;27;20096;-62
2023/03/05 20:03:57;;;;;;;17.23;11.90;;;;;;;;;;10408351;27;20070;-63
2023/03/05 20:08:56;;;;;;;17.77;15.57;;;;;;;;;;10414322;27;20070;-63
2023/03/05 20:13:54;;;;;;;16.02;12.07;;;;;;;;;;10413966;27;20523;-63
2023/03/05 20:18:53;;;;;;;19.45;14.52;;;;;;;;;;10411345;27;20063;-63
2023/03/05 20:23:54;;;;;;;17.55;13.52;;;;;;;;;;10400162;27;20082;-64
2023/03/05 20:28:52;;;;;;;16.83;13.43;;;;;;;;;;10415238;27;20055;-65
2023/03/05 20:33:50;;;;;;;18.35;13.48;;;;;;;;;;10409156;27;20075;-64
2023/03/05 20:38:49;;;;;;;16.55;12.57;;;;;;;;;;10413253;27;20086;-65
2023/03/05 20:43:49;;;;;;;13.73;11.63;;;;;;;;;;10407777;27;20079;-63
2023/03/05 20:48:48;;;;;;;15.80;11.25;;;;;;;;;;10406013;27;20476;-63
2023/03/05 20:53:46;;;;;;;19.65;12.45;;;;;;;;;;10409188;27;20060;-65
2023/03/05 20:58:44;;;;;;;19.02;12.63;;;;;;;;;;10403609;27;20067;-63
2023/03/05 21:03:44;;;;;;;13.00;10.45;;;;;;;;;;10407945;27;20562;-64
2023/03/05 21:08:43;;;;;;;12.18;9.70;;;;;;;;;;10406838;27;20445;-64
2023/03/05 21:13:43;;;;;;;11.20;9.52;;;;;;;;;;10406115;27;20109;-64
2023/03/05 21:18:41;;;;;;;13.35;10.35;;;;;;;;;;10404170;27;20079;-63
2023/03/05 21:23:40;;;;;;;14.85;10.48;;;;;;;;;;10407731;27;20071;-63
2023/03/05 21:28:39;;;;;;;13.13;10.32;;;;;;;;;;10400751;27;20460;-64
2023/03/05 21:33:37;;;;;;;13.45;10.20;;;;;;;;;;10409225;27;20074;-64
2023/03/05 21:38:35;;;;;;;15.52;10.48;;;;;;;;;;10405343;27;20578;-63
2023/03/05 21:43:35;;;;;;;13.43;10.68;;;;;;;;;;10407817;27;20067;-63
2023/03/05 21:48:33;;;;;;;13.43;10.10;;;;;;;;;;10406826;28;20067;-63
2023/03/05 21:53:31;;;;;;;12.32;10.52;;;;;;;;;;10408789;28;20535;-63
2023/03/05 21:58:30;;;;;;;13.38;10.32;;;;;;;;;;10407310;28;20082;-63
2023/03/05 22:03:30;;;;;;;16.55;10.77;;;;;;;;;;10410926;28;20102;-63
2023/03/05 22:08:28;;;;;;;18.83;12.95;;;;;;;;;;10409260;28;20558;-62
2023/03/05 22:13:27;;;;;;;14.88;11.60;;;;;;;;;;10410943;28;20071;-63
2023/03/05 22:18:26;;;;;;;13.98;10.43;;;;;;;;;;10407988;28;20059;-64
2023/03/05 22:23:27;;;;;;;18.92;13.60;;;;;;;;;;10409062;28;20066;-63
2023/03/05 22:28:26;;;;;;;21.35;13.60;;;;;;;;;;10401605;28;20082;-64
2023/03/05 22:33:24;;;;;;;15.98;12.40;;;;;;;;;;10409314;27;20064;-62
2023/03/05 22:38:23;;;;;;;15.13;11.35;;;;;;;;;;10410368;28;20063;-62
2023/03/05 22:43:22;;;;;;;14.45;11.60;;;;;;;;;;10408794;28;20071;-63
2023/03/05 22:48:20;;;;;;;13.15;10.77;;;;;;;;;;10401388;28;20086;-64
2023/03/05 22:53:18;;;;;;;13.73;9.93;;;;;;;;;;10405669;27;20579;-63
2023/03/05 22:58:17;;;;;;;12.15;10.05;;;;;;;;;;10404581;27;20068;-63
2023/03/05 23:03:16;;;;;;;12.07;8.70;;;;;;;;;;10409268;27;20059;-62
2023/03/05 23:08:14;;;;;;;10.55;8.50;;;;;;;;;;10413838;27;20063;-62
2023/03/05 23:13:13;;;;;;;11.05;8.57;;;;;;;;;;10413105;27;20077;-62
2023/03/05 23:18:13;;;;;;;9.68;8.65;;;;;;;;;;10415091;27;20093;-62
2023/03/05 23:23:12;;;;;;;12.43;7.93;;;;;;;;;;10412917;27;20479;-62
2023/03/05 23:28:10;;;;;;;10.02;8.32;;;;;;;;;;10415625;27;20075;-62
2023/03/05 23:33:13;;;;;;;12.45;9.43;;;;;;;;;;10416097;27;20082;-62
2023/03/05 23:38:13;;;;;;;11.52;8.80;;;;;;;;;;10416419;27;20070;-62
2023/03/05 23:43:11;;;;;;;11.02;9.23;;;;;;;;;;10419342;27;20079;-62
2023/03/05 23:48:10;;;;;;;11.38;9.80;;;;;;;;;;10418102;27;20528;-62
2023/03/05 23:53:08;;;;;;;12.25;8.60;;;;;;;;;;10414800;27;20074;-62
2023/03/05 23:58:08;;;;;;;11.75;9.82;;;;;;;;;;10413673;27;20071;-62
